sensor_id;sensor_type;location;lat;lon;timestamp;P1;durP1;ratioP1;P2;durP2;ratioP2
15112;SDS011;7657;50.140;7.076;2023-05-10T00:01:43;11.10;;;6.10;;
15112;SDS011;7657;50.140;7.076;2023-05-10T00:04:10;7.28;;;4.50;;
15112;SDS011;7657;50.140;7.076;2023-05-10T00:06:38;6.93;;;3.83;;
15112;SDS011;7657;50.140;7.076;2023-05-10T00:09:05;4.93;;;3.40;;
15112;SDS011;7657;50.140;7.076;2023-05-10T00:11:32;8.57;;;5.47;;
15112;SDS011;7657;50.140;7.076;2023-05-10T00:13:58;2.50;;;2.15;;
15112;SDS011;7657;50.140;7.076;2023-05-10T00:16:25;12.00;;;6.97;;
15112;SDS011;7657;50.140;7.076;2023-05-10T00:18:52;10.93;;;6.13;;
15112;SDS011;7657;50.140;7.076;2023-05-10T00:21:19;8.18;;;4.25;;
15112;SDS011;7657;50.140;7.076;2023-05-10T00:23:47;21.92;;;12.00;;
15112;SDS011;7657;50.140;7.076;2023-05-10T00:26:14;9.80;;;5.68;;
15112;SDS011;7657;50.140;7.076;2023-05-10T00:28:41;8.32;;;5.18;;
15112;SDS011;7657;50.140;7.076;2023-05-10T00:31:08;4.32;;;3.05;;
15112;SDS011;7657;50.140;7.076;2023-05-10T00:33:35;2.15;;;2.05;;
15112;SDS011;7657;50.140;7.076;2023-05-10T00:36:02;15.20;;;9.80;;
15112;SDS011;7657;50.140;7.076;2023-05-10T00:38:32;7.22;;;4.05;;
15112;SDS011;7657;50.140;7.076;2023-05-10T00:41:01;7.57;;;4.78;;
15112;SDS011;7657;50.140;7.076;2023-05-10T00:43:28;12.35;;;7.65;;
15112;SDS011;7657;50.140;7.076;2023-05-10T00:45:55;8.55;;;5.03;;
15112;SDS011;7657;50.140;7.076;2023-05-10T00:48:22;4.70;;;3.35;;
15112;SDS011;7657;50.140;7.076;2023-05-10T00:50:49;21.55;;;12.80;;
15112;SDS011;7657;50.140;7.076;2023-05-10T00:53:16;3.63;;;3.13;;
15112;SDS011;7657;50.140;7.076;2023-05-10T00:55:43;5.05;;;4.07;;
15112;SDS011;7657;50.140;7.076;2023-05-10T00:58:12;4.25;;;3.10;;
15112;SDS011;7657;50.140;7.076;2023-05-10T01:00:39;4.90;;;3.83;;
15112;SDS011;7657;50.140;7.076;2023-05-10T01:03:08;3.78;;;3.20;;
15112;SDS011;7657;50.140;7.076;2023-05-10T01:05:36;6.03;;;3.58;;
15112;SDS011;7657;50.140;7.076;2023-05-10T01:08:03;5.18;;;2.95;;
15112;SDS011;7657;50.140;7.076;2023-05-10T01:10:31;4.03;;;3.63;;
15112;SDS011;7657;50.140;7.076;2023-05-10T01:12:58;7.03;;;3.00;;
15112;SDS011;7657;50.140;7.076;2023-05-10T01:15:27;3.20;;;2.90;;
15112;SDS011;7657;50.140;7.076;2023-05-10T01:17:54;4.75;;;3.65;;
15112;SDS011;7657;50.140;7.076;2023-05-10T01:20:22;4.97;;;4.07;;
15112;SDS011;7657;50.140;7.076;2023-05-10T01:23:00;7.85;;;6.00;;
15112;SDS011;7657;50.140;7.076;2023-05-10T01:28:48;4.28;;;3.88;;
15112;SDS011;7657;50.140;7.076;2023-05-10T01:31:39;2.80;;;2.58;;
15112;SDS011;7657;50.140;7.076;2023-05-10T01:34:32;4.85;;;2.45;;
15112;SDS011;7657;50.140;7.076;2023-05-10T01:37:02;6.22;;;4.45;;
15112;SDS011;7657;50.140;7.076;2023-05-10T01:39:36;3.97;;;3.40;;
15112;SDS011;7657;50.140;7.076;2023-05-10T01:42:11;3.65;;;3.10;;
15112;SDS011;7657;50.140;7.076;2023-05-10T01:44:45;6.28;;;5.28;;
15112;SDS011;7657;50.140;7.076;2023-05-10T01:47:22;2.95;;;2.75;;
15112;SDS011;7657;50.140;7.076;2023-05-10T01:49:59;4.18;;;3.30;;
15112;SDS011;7657;50.140;7.076;2023-05-10T01:52:30;5.68;;;4.93;;
15112;SDS011;7657;50.140;7.076;2023-05-10T01:54:59;4.55;;;3.50;;
15112;SDS011;7657;50.140;7.076;2023-05-10T01:57:30;3.55;;;3.25;;
15112;SDS011;7657;50.140;7.076;2023-05-10T02:00:00;4.18;;;3.38;;
15112;SDS011;7657;50.140;7.076;2023-05-10T02:02:29;4.35;;;3.92;;
15112;SDS011;7657;50.140;7.076;2023-05-10T02:05:00;4.97;;;4.07;;
15112;SDS011;7657;50.140;7.076;2023-05-10T02:07:31;4.05;;;3.65;;
15112;SDS011;7657;50.140;7.076;2023-05-10T02:10:00;6.22;;;3.95;;
15112;SDS011;7657;50.140;7.076;2023-05-10T02:12:29;4.47;;;4.00;;
15112;SDS011;7657;50.140;7.076;2023-05-10T02:14:58;5.15;;;3.70;;
15112;SDS011;7657;50.140;7.076;2023-05-10T02:17:26;5.65;;;4.38;;
15112;SDS011;7657;50.140;7.076;2023-05-10T02:19:54;4.35;;;3.95;;
15112;SDS011;7657;50.140;7.076;2023-05-10T02:22:25;4.78;;;4.28;;
15112;SDS011;7657;50.140;7.076;2023-05-10T02:24:53;4.88;;;4.38;;
15112;SDS011;7657;50.140;7.076;2023-05-10T02:27:21;8.32;;;5.70;;
15112;SDS011;7657;50.140;7.076;2023-05-10T02:29:50;4.97;;;3.83;;
15112;SDS011;7657;50.140;7.076;2023-05-10T02:32:18;5.95;;;4.60;;
15112;SDS011;7657;50.140;7.076;2023-05-10T02:34:45;6.70;;;4.70;;
15112;SDS011;7657;50.140;7.076;2023-05-10T02:37:16;4.43;;;4.03;;
15112;SDS011;7657;50.140;7.076;2023-05-10T02:39:47;4.82;;;3.92;;
15112;SDS011;7657;50.140;7.076;2023-05-10T02:42:16;8.57;;;5.95;;
15112;SDS011;7657;50.140;7.076;2023-05-10T02:44:45;8.13;;;5.32;;
15112;SDS011;7657;50.140;7.076;2023-05-10T02:47:13;5.07;;;3.85;;
15112;SDS011;7657;50.140;7.076;2023-05-10T02:49:40;8.90;;;5.00;;
15112;SDS011;7657;50.140;7.076;2023-05-10T02:52:07;4.20;;;3.58;;
15112;SDS011;7657;50.140;7.076;2023-05-10T02:54:36;7.75;;;6.00;;
15112;SDS011;7657;50.140;7.076;2023-05-10T02:57:08;7.00;;;4.97;;
15112;SDS011;7657;50.140;7.076;2023-05-10T02:59:43;6.88;;;3.80;;
15112;SDS011;7657;50.140;7.076;2023-05-10T03:02:10;5.13;;;4.40;;
15112;SDS011;7657;50.140;7.076;2023-05-10T03:04:38;5.43;;;4.00;;
15112;SDS011;7657;50.140;7.076;2023-05-10T03:07:05;6.20;;;3.67;;
15112;SDS011;7657;50.140;7.076;2023-05-10T03:09:32;6.63;;;4.80;;
15112;SDS011;7657;50.140;7.076;2023-05-10T03:12:00;8.23;;;4.88;;
15112;SDS011;7657;50.140;7.076;2023-05-10T03:14:38;7.00;;;4.82;;
15112;SDS011;7657;50.140;7.076;2023-05-10T03:17:14;6.07;;;4.15;;
15112;SDS011;7657;50.140;7.076;2023-05-10T03:19:50;8.18;;;4.30;;
15112;SDS011;7657;50.140;7.076;2023-05-10T03:22:21;7.95;;;4.50;;
15112;SDS011;7657;50.140;7.076;2023-05-10T03:24:51;6.60;;;4.35;;
15112;SDS011;7657;50.140;7.076;2023-05-10T03:27:22;6.10;;;4.35;;
15112;SDS011;7657;50.140;7.076;2023-05-10T03:29:52;6.30;;;4.47;;
15112;SDS011;7657;50.140;7.076;2023-05-10T03:32:20;6.82;;;4.68;;
15112;SDS011;7657;50.140;7.076;2023-05-10T03:34:48;6.45;;;4.70;;
15112;SDS011;7657;50.140;7.076;2023-05-10T03:37:15;5.55;;;3.60;;
15112;SDS011;7657;50.140;7.076;2023-05-10T03:39:41;9.10;;;4.97;;
15112;SDS011;7657;50.140;7.076;2023-05-10T03:42:08;5.80;;;3.88;;
15112;SDS011;7657;50.140;7.076;2023-05-10T03:44:36;10.02;;;5.90;;
15112;SDS011;7657;50.140;7.076;2023-05-10T03:47:05;4.78;;;3.60;;
15112;SDS011;7657;50.140;7.076;2023-05-10T03:49:32;5.65;;;3.83;;
15112;SDS011;7657;50.140;7.076;2023-05-10T03:51:59;7.88;;;3.60;;
15112;SDS011;7657;50.140;7.076;2023-05-10T03:54:26;6.20;;;4.18;;
15112;SDS011;7657;50.140;7.076;2023-05-10T03:56:52;7.20;;;4.22;;
15112;SDS011;7657;50.140;7.076;2023-05-10T03:59:19;6.38;;;3.83;;
15112;SDS011;7657;50.140;7.076;2023-05-10T04:01:46;14.95;;;6.45;;
15112;SDS011;7657;50.140;7.076;2023-05-10T04:04:14;7.40;;;4.32;;
15112;SDS011;7657;50.140;7.076;2023-05-10T04:06:43;5.45;;;3.90;;
15112;SDS011;7657;50.140;7.076;2023-05-10T04:09:10;8.10;;;4.60;;
15112;SDS011;7657;50.140;7.076;2023-05-10T04:11:37;6.25;;;3.95;;
15112;SDS011;7657;50.140;7.076;2023-05-10T04:14:04;5.65;;;4.25;;
15112;SDS011;7657;50.140;7.076;2023-05-10T04:16:30;5.13;;;3.45;;
15112;SDS011;7657;50.140;7.076;2023-05-10T04:18:57;5.40;;;2.97;;
15112;SDS011;7657;50.140;7.076;2023-05-10T04:21:26;4.95;;;3.00;;
15112;SDS011;7657;50.140;7.076;2023-05-10T04:23:53;4.82;;;3.38;;
15112;SDS011;7657;50.140;7.076;2023-05-10T04:26:20;5.22;;;3.58;;
15112;SDS011;7657;50.140;7.076;2023-05-10T04:28:47;4.55;;;3.78;;
15112;SDS011;7657;50.140;7.076;2023-05-10T04:31:14;5.47;;;3.72;;
15112;SDS011;7657;50.140;7.076;2023-05-10T04:33:41;5.35;;;3.45;;
15112;SDS011;7657;50.140;7.076;2023-05-10T04:36:08;5.68;;;3.33;;
15112;SDS011;7657;50.140;7.076;2023-05-10T04:38:36;6.53;;;3.58;;
15112;SDS011;7657;50.140;7.076;2023-05-10T04:41:03;5.68;;;3.45;;
15112;SDS011;7657;50.140;7.076;2023-05-10T04:43:31;4.20;;;3.45;;
15112;SDS011;7657;50.140;7.076;2023-05-10T04:45:58;4.90;;;3.58;;
15112;SDS011;7657;50.140;7.076;2023-05-10T04:48:25;4.85;;;3.38;;
15112;SDS011;7657;50.140;7.076;2023-05-10T04:50:51;4.88;;;3.67;;
15112;SDS011;7657;50.140;7.076;2023-05-10T04:53:18;5.10;;;3.08;;
15112;SDS011;7657;50.140;7.076;2023-05-10T04:55:47;11.13;;;7.20;;
15112;SDS011;7657;50.140;7.076;2023-05-10T04:58:14;5.80;;;4.22;;
15112;SDS011;7657;50.140;7.076;2023-05-10T05:00:41;13.00;;;8.02;;
15112;SDS011;7657;50.140;7.076;2023-05-10T05:03:08;9.60;;;5.72;;
15112;SDS011;7657;50.140;7.076;2023-05-10T05:05:34;6.95;;;3.90;;
15112;SDS011;7657;50.140;7.076;2023-05-10T05:08:01;17.00;;;9.55;;
15112;SDS011;7657;50.140;7.076;2023-05-10T05:10:28;7.63;;;4.72;;
15112;SDS011;7657;50.140;7.076;2023-05-10T05:12:57;8.35;;;4.55;;
15112;SDS011;7657;50.140;7.076;2023-05-10T05:15:23;12.43;;;7.65;;
15112;SDS011;7657;50.140;7.076;2023-05-10T05:17:50;31.92;;;19.15;;
15112;SDS011;7657;50.140;7.076;2023-05-10T05:20:17;7.30;;;3.85;;
15112;SDS011;7657;50.140;7.076;2023-05-10T05:22:45;6.15;;;3.05;;
15112;SDS011;7657;50.140;7.076;2023-05-10T05:25:11;6.40;;;4.57;;
15112;SDS011;7657;50.140;7.076;2023-05-10T05:27:38;5.03;;;3.72;;
15112;SDS011;7657;50.140;7.076;2023-05-10T05:30:07;3.50;;;3.20;;
15112;SDS011;7657;50.140;7.076;2023-05-10T05:32:35;22.65;;;16.42;;
15112;SDS011;7657;50.140;7.076;2023-05-10T05:35:02;7.28;;;4.78;;
15112;SDS011;7657;50.140;7.076;2023-05-10T05:37:29;8.50;;;5.18;;
15112;SDS011;7657;50.140;7.076;2023-05-10T05:39:56;10.55;;;6.05;;
15112;SDS011;7657;50.140;7.076;2023-05-10T05:42:24;13.13;;;6.82;;
15112;SDS011;7657;50.140;7.076;2023-05-10T05:44:51;13.60;;;8.23;;
15112;SDS011;7657;50.140;7.076;2023-05-10T05:47:19;7.68;;;4.47;;
15112;SDS011;7657;50.140;7.076;2023-05-10T05:49:46;9.18;;;3.40;;
15112;SDS011;7657;50.140;7.076;2023-05-10T05:52:13;4.10;;;2.88;;
15112;SDS011;7657;50.140;7.076;2023-05-10T05:54:40;7.63;;;3.80;;
15112;SDS011;7657;50.140;7.076;2023-05-10T05:57:06;13.50;;;7.38;;
15112;SDS011;7657;50.140;7.076;2023-05-10T05:59:34;6.65;;;3.67;;
15112;SDS011;7657;50.140;7.076;2023-05-10T06:02:00;6.18;;;3.55;;
15112;SDS011;7657;50.140;7.076;2023-05-10T06:04:29;4.93;;;3.08;;
15112;SDS011;7657;50.140;7.076;2023-05-10T06:06:55;4.88;;;3.28;;
15112;SDS011;7657;50.140;7.076;2023-05-10T06:09:22;10.43;;;5.82;;
15112;SDS011;7657;50.140;7.076;2023-05-10T06:11:49;6.03;;;3.40;;
15112;SDS011;7657;50.140;7.076;2023-05-10T06:14:16;7.78;;;4.47;;
15112;SDS011;7657;50.140;7.076;2023-05-10T06:16:43;8.27;;;4.47;;
15112;SDS011;7657;50.140;7.076;2023-05-10T06:19:10;6.70;;;4.38;;
15112;SDS011;7657;50.140;7.076;2023-05-10T06:21:38;5.38;;;3.63;;
15112;SDS011;7657;50.140;7.076;2023-05-10T06:24:05;11.88;;;7.45;;
15112;SDS011;7657;50.140;7.076;2023-05-10T06:26:32;5.25;;;3.65;;
15112;SDS011;7657;50.140;7.076;2023-05-10T06:28:59;5.43;;;3.00;;
15112;SDS011;7657;50.140;7.076;2023-05-10T06:31:26;7.55;;;4.15;;
15112;SDS011;7657;50.140;7.076;2023-05-10T06:33:53;4.25;;;3.40;;
15112;SDS011;7657;50.140;7.076;2023-05-10T06:36:20;6.95;;;3.80;;
15112;SDS011;7657;50.140;7.076;2023-05-10T06:38:49;6.95;;;3.38;;
15112;SDS011;7657;50.140;7.076;2023-05-10T06:41:17;6.78;;;3.60;;
15112;SDS011;7657;50.140;7.076;2023-05-10T06:43:43;4.10;;;3.25;;
15112;SDS011;7657;50.140;7.076;2023-05-10T06:46:10;5.13;;;4.00;;
15112;SDS011;7657;50.140;7.076;2023-05-10T06:48:37;6.72;;;3.75;;
15112;SDS011;7657;50.140;7.076;2023-05-10T06:51:04;8.48;;;4.63;;
15112;SDS011;7657;50.140;7.076;2023-05-10T06:53:31;5.57;;;3.30;;
15112;SDS011;7657;50.140;7.076;2023-05-10T06:56:00;3.80;;;2.92;;
15112;SDS011;7657;50.140;7.076;2023-05-10T06:58:28;7.10;;;3.90;;
15112;SDS011;7657;50.140;7.076;2023-05-10T07:01:01;7.00;;;3.15;;
15112;SDS011;7657;50.140;7.076;2023-05-10T07:03:28;8.43;;;4.68;;
15112;SDS011;7657;50.140;7.076;2023-05-10T07:05:59;3.95;;;2.88;;
15112;SDS011;7657;50.140;7.076;2023-05-10T07:08:28;10.02;;;4.47;;
15112;SDS011;7657;50.140;7.076;2023-05-10T07:11:00;9.52;;;4.78;;
15112;SDS011;7657;50.140;7.076;2023-05-10T07:13:28;9.63;;;5.18;;
15112;SDS011;7657;50.140;7.076;2023-05-10T07:15:56;4.97;;;3.38;;
15112;SDS011;7657;50.140;7.076;2023-05-10T07:18:23;6.07;;;2.58;;
15112;SDS011;7657;50.140;7.076;2023-05-10T07:20:50;3.63;;;2.65;;
15112;SDS011;7657;50.140;7.076;2023-05-10T07:23:17;3.15;;;2.33;;
15112;SDS011;7657;50.140;7.076;2023-05-10T07:25:44;3.38;;;2.00;;
15112;SDS011;7657;50.140;7.076;2023-05-10T07:28:13;2.90;;;2.08;;
15112;SDS011;7657;50.140;7.076;2023-05-10T07:30:41;2.88;;;1.92;;
15112;SDS011;7657;50.140;7.076;2023-05-10T07:33:09;2.95;;;1.98;;
15112;SDS011;7657;50.140;7.076;2023-05-10T07:35:37;2.97;;;1.60;;
15112;SDS011;7657;50.140;7.076;2023-05-10T07:38:04;1.90;;;1.65;;
15112;SDS011;7657;50.140;7.076;2023-05-10T07:40:31;5.35;;;2.47;;
15112;SDS011;7657;50.140;7.076;2023-05-10T07:42:58;2.28;;;1.58;;
15112;SDS011;7657;50.140;7.076;2023-05-10T07:45:28;3.17;;;2.33;;
15112;SDS011;7657;50.140;7.076;2023-05-10T07:47:55;2.03;;;1.42;;
15112;SDS011;7657;50.140;7.076;2023-05-10T07:50:21;3.92;;;2.50;;
15112;SDS011;7657;50.140;7.076;2023-05-10T07:52:48;8.88;;;3.38;;
15112;SDS011;7657;50.140;7.076;2023-05-10T07:55:15;6.70;;;4.22;;
15112;SDS011;7657;50.140;7.076;2023-05-10T07:57:46;1.58;;;1.48;;
15112;SDS011;7657;50.140;7.076;2023-05-10T08:00:13;2.20;;;1.50;;
15112;SDS011;7657;50.140;7.076;2023-05-10T08:02:45;2.42;;;1.40;;
15112;SDS011;7657;50.140;7.076;2023-05-10T08:05:12;1.30;;;1.20;;
15112;SDS011;7657;50.140;7.076;2023-05-10T08:07:40;2.72;;;1.63;;
15112;SDS011;7657;50.140;7.076;2023-05-10T08:10:08;2.40;;;1.42;;
15112;SDS011;7657;50.140;7.076;2023-05-10T08:12:36;1.73;;;0.88;;
15112;SDS011;7657;50.140;7.076;2023-05-10T08:15:03;2.08;;;0.90;;
15112;SDS011;7657;50.140;7.076;2023-05-10T08:17:31;1.40;;;1.00;;
15112;SDS011;7657;50.140;7.076;2023-05-10T08:19:59;1.33;;;1.00;;
15112;SDS011;7657;50.140;7.076;2023-05-10T08:22:26;2.72;;;0.95;;
15112;SDS011;7657;50.140;7.076;2023-05-10T08:24:53;1.50;;;0.98;;
15112;SDS011;7657;50.140;7.076;2023-05-10T08:27:20;1.08;;;0.70;;
15112;SDS011;7657;50.140;7.076;2023-05-10T08:29:50;1.00;;;0.80;;
15112;SDS011;7657;50.140;7.076;2023-05-10T08:32:17;3.78;;;1.00;;
15112;SDS011;7657;50.140;7.076;2023-05-10T08:34:44;3.05;;;0.73;;
15112;SDS011;7657;50.140;7.076;2023-05-10T08:37:12;1.30;;;0.90;;
15112;SDS011;7657;50.140;7.076;2023-05-10T08:39:39;1.10;;;0.80;;
15112;SDS011;7657;50.140;7.076;2023-05-10T08:42:06;2.50;;;0.85;;
15112;SDS011;7657;50.140;7.076;2023-05-10T08:44:34;2.85;;;1.10;;
15112;SDS011;7657;50.140;7.076;2023-05-10T08:47:02;2.03;;;1.38;;
15112;SDS011;7657;50.140;7.076;2023-05-10T08:49:31;1.05;;;0.63;;
15112;SDS011;7657;50.140;7.076;2023-05-10T08:51:59;3.35;;;2.08;;
15112;SDS011;7657;50.140;7.076;2023-05-10T08:54:32;1.08;;;1.02;;
15112;SDS011;7657;50.140;7.076;2023-05-10T08:57:00;1.38;;;0.98;;
15112;SDS011;7657;50.140;7.076;2023-05-10T08:59:27;3.80;;;2.35;;
15112;SDS011;7657;50.140;7.076;2023-05-10T09:01:55;5.00;;;3.28;;
15112;SDS011;7657;50.140;7.076;2023-05-10T09:04:24;4.90;;;2.90;;
15112;SDS011;7657;50.140;7.076;2023-05-10T09:06:51;3.20;;;1.30;;
15112;SDS011;7657;50.140;7.076;2023-05-10T09:09:18;1.35;;;1.25;;
15112;SDS011;7657;50.140;7.076;2023-05-10T09:11:47;1.33;;;1.23;;
15112;SDS011;7657;50.140;7.076;2023-05-10T09:14:14;2.10;;;1.35;;
15112;SDS011;7657;50.140;7.076;2023-05-10T09:16:42;1.55;;;1.15;;
15112;SDS011;7657;50.140;7.076;2023-05-10T09:19:09;5.70;;;4.35;;
15112;SDS011;7657;50.140;7.076;2023-05-10T09:21:36;9.80;;;5.90;;
15112;SDS011;7657;50.140;7.076;2023-05-10T09:24:04;3.67;;;2.45;;
15112;SDS011;7657;50.140;7.076;2023-05-10T09:26:32;0.90;;;0.80;;
15112;SDS011;7657;50.140;7.076;2023-05-10T09:29:03;3.30;;;1.15;;
15112;SDS011;7657;50.140;7.076;2023-05-10T09:34:20;2.55;;;1.02;;
15112;SDS011;7657;50.140;7.076;2023-05-10T09:36:52;0.88;;;0.55;;
15112;SDS011;7657;50.140;7.076;2023-05-10T09:39:19;2.65;;;1.50;;
15112;SDS011;7657;50.140;7.076;2023-05-10T09:41:46;0.60;;;0.60;;
15112;SDS011;7657;50.140;7.076;2023-05-10T09:44:17;1.67;;;1.55;;
15112;SDS011;7657;50.140;7.076;2023-05-10T09:46:48;2.03;;;1.20;;
15112;SDS011;7657;50.140;7.076;2023-05-10T09:49:17;2.00;;;1.75;;
15112;SDS011;7657;50.140;7.076;2023-05-10T09:51:45;0.50;;;0.50;;
15112;SDS011;7657;50.140;7.076;2023-05-10T09:54:12;1.70;;;1.40;;
15112;SDS011;7657;50.140;7.076;2023-05-10T09:56:40;1.90;;;0.95;;
15112;SDS011;7657;50.140;7.076;2023-05-10T09:59:08;0.50;;;0.40;;
15112;SDS011;7657;50.140;7.076;2023-05-10T10:01:37;0.80;;;0.60;;
15112;SDS011;7657;50.140;7.076;2023-05-10T10:04:06;2.42;;;1.83;;
15112;SDS011;7657;50.140;7.076;2023-05-10T10:06:36;1.98;;;0.68;;
15112;SDS011;7657;50.140;7.076;2023-05-10T10:09:04;1.67;;;0.60;;
15112;SDS011;7657;50.140;7.076;2023-05-10T10:11:33;1.30;;;0.80;;
15112;SDS011;7657;50.140;7.076;2023-05-10T10:14:01;0.60;;;0.40;;
15112;SDS011;7657;50.140;7.076;2023-05-10T10:16:28;0.50;;;0.50;;
15112;SDS011;7657;50.140;7.076;2023-05-10T10:18:57;1.75;;;0.43;;
15112;SDS011;7657;50.140;7.076;2023-05-10T10:21:24;0.88;;;0.70;;
15112;SDS011;7657;50.140;7.076;2023-05-10T10:23:51;1.50;;;1.40;;
15112;SDS011;7657;50.140;7.076;2023-05-10T10:26:18;0.50;;;0.40;;
15112;SDS011;7657;50.140;7.076;2023-05-10T10:28:47;0.80;;;0.40;;
15112;SDS011;7657;50.140;7.076;2023-05-10T10:31:21;0.47;;;0.30;;
15112;SDS011;7657;50.140;7.076;2023-05-10T10:34:01;0.47;;;0.40;;
15112;SDS011;7657;50.140;7.076;2023-05-10T10:36:31;1.08;;;0.40;;
15112;SDS011;7657;50.140;7.076;2023-05-10T10:39:02;0.73;;;0.73;;
15112;SDS011;7657;50.140;7.076;2023-05-10T10:41:36;0.90;;;0.35;;
15112;SDS011;7657;50.140;7.076;2023-05-10T10:44:25;0.65;;;0.57;;
15112;SDS011;7657;50.140;7.076;2023-05-10T10:50:05;2.38;;;0.63;;
15112;SDS011;7657;50.140;7.076;2023-05-10T10:52:34;1.25;;;0.90;;
15112;SDS011;7657;50.140;7.076;2023-05-10T10:55:03;1.42;;;0.77;;
15112;SDS011;7657;50.140;7.076;2023-05-10T10:57:35;1.23;;;0.77;;
15112;SDS011;7657;50.140;7.076;2023-05-10T11:00:25;2.20;;;0.88;;
15112;SDS011;7657;50.140;7.076;2023-05-10T11:02:55;1.00;;;0.50;;
15112;SDS011;7657;50.140;7.076;2023-05-10T11:05:25;1.02;;;0.52;;
15112;SDS011;7657;50.140;7.076;2023-05-10T11:08:08;1.35;;;1.20;;
15112;SDS011;7657;50.140;7.076;2023-05-10T11:10:37;0.47;;;0.47;;
15112;SDS011;7657;50.140;7.076;2023-05-10T11:13:05;1.08;;;0.80;;
15112;SDS011;7657;50.140;7.076;2023-05-10T11:15:33;3.80;;;0.63;;
15112;SDS011;7657;50.140;7.076;2023-05-10T11:18:16;0.90;;;0.50;;
15112;SDS011;7657;50.140;7.076;2023-05-10T11:20:46;1.20;;;0.57;;
15112;SDS011;7657;50.140;7.076;2023-05-10T11:23:17;0.20;;;0.20;;
15112;SDS011;7657;50.140;7.076;2023-05-10T11:25:45;0.30;;;0.30;;
15112;SDS011;7657;50.140;7.076;2023-05-10T11:28:13;0.80;;;0.52;;
15112;SDS011;7657;50.140;7.076;2023-05-10T11:30:41;0.50;;;0.50;;
15112;SDS011;7657;50.140;7.076;2023-05-10T11:33:09;0.52;;;0.40;;
15112;SDS011;7657;50.140;7.076;2023-05-10T11:35:41;1.75;;;0.80;;
15112;SDS011;7657;50.140;7.076;2023-05-10T11:38:10;1.67;;;0.75;;
15112;SDS011;7657;50.140;7.076;2023-05-10T11:40:38;1.83;;;0.70;;
15112;SDS011;7657;50.140;7.076;2023-05-10T11:43:05;0.50;;;0.50;;
15112;SDS011;7657;50.140;7.076;2023-05-10T11:45:34;0.30;;;0.30;;
15112;SDS011;7657;50.140;7.076;2023-05-10T11:48:02;0.40;;;0.40;;
15112;SDS011;7657;50.140;7.076;2023-05-10T11:50:29;0.50;;;0.50;;
15112;SDS011;7657;50.140;7.076;2023-05-10T11:52:56;0.82;;;0.57;;
15112;SDS011;7657;50.140;7.076;2023-05-10T11:55:25;0.57;;;0.50;;
15112;SDS011;7657;50.140;7.076;2023-05-10T11:57:52;0.38;;;0.38;;
15112;SDS011;7657;50.140;7.076;2023-05-10T12:00:19;0.50;;;0.50;;
15112;SDS011;7657;50.140;7.076;2023-05-10T12:02:46;1.63;;;0.40;;
15112;SDS011;7657;50.140;7.076;2023-05-10T12:05:14;1.70;;;0.40;;
15112;SDS011;7657;50.140;7.076;2023-05-10T12:07:42;2.15;;;0.57;;
15112;SDS011;7657;50.140;7.076;2023-05-10T12:10:09;1.45;;;0.40;;
15112;SDS011;7657;50.140;7.076;2023-05-10T12:12:41;2.15;;;0.43;;
15112;SDS011;7657;50.140;7.076;2023-05-10T12:15:12;0.95;;;0.50;;
15112;SDS011;7657;50.140;7.076;2023-05-10T12:17:43;0.50;;;0.50;;
15112;SDS011;7657;50.140;7.076;2023-05-10T12:20:15;0.40;;;0.40;;
15112;SDS011;7657;50.140;7.076;2023-05-10T12:22:50;0.80;;;0.68;;
15112;SDS011;7657;50.140;7.076;2023-05-10T12:25:18;0.60;;;0.60;;
15112;SDS011;7657;50.140;7.076;2023-05-10T12:27:52;0.65;;;0.47;;
15112;SDS011;7657;50.140;7.076;2023-05-10T12:30:20;0.82;;;0.50;;
15112;SDS011;7657;50.140;7.076;2023-05-10T12:32:48;2.00;;;0.60;;
15112;SDS011;7657;50.140;7.076;2023-05-10T12:35:15;0.85;;;0.50;;
15112;SDS011;7657;50.140;7.076;2023-05-10T12:37:45;2.40;;;0.50;;
15112;SDS011;7657;50.140;7.076;2023-05-10T12:40:13;2.10;;;0.55;;
15112;SDS011;7657;50.140;7.076;2023-05-10T12:42:40;0.60;;;0.60;;
15112;SDS011;7657;50.140;7.076;2023-05-10T12:45:08;0.55;;;0.55;;
15112;SDS011;7657;50.140;7.076;2023-05-10T12:47:36;2.33;;;0.60;;
15112;SDS011;7657;50.140;7.076;2023-05-10T12:50:03;2.05;;;0.50;;
15112;SDS011;7657;50.140;7.076;2023-05-10T12:52:31;0.57;;;0.45;;
15112;SDS011;7657;50.140;7.076;2023-05-10T12:54:58;0.77;;;0.55;;
15112;SDS011;7657;50.140;7.076;2023-05-10T12:57:26;0.90;;;0.50;;
15112;SDS011;7657;50.140;7.076;2023-05-10T12:59:53;0.47;;;0.47;;
15112;SDS011;7657;50.140;7.076;2023-05-10T13:02:22;1.63;;;0.70;;
15112;SDS011;7657;50.140;7.076;2023-05-10T13:04:49;0.60;;;0.55;;
15112;SDS011;7657;50.140;7.076;2023-05-10T13:07:17;1.35;;;0.68;;
15112;SDS011;7657;50.140;7.076;2023-05-10T13:09:44;2.55;;;0.60;;
15112;SDS011;7657;50.140;7.076;2023-05-10T13:12:10;0.77;;;0.77;;
15112;SDS011;7657;50.140;7.076;2023-05-10T13:14:37;0.50;;;0.50;;
15112;SDS011;7657;50.140;7.076;2023-05-10T13:17:05;1.58;;;0.70;;
15112;SDS011;7657;50.140;7.076;2023-05-10T13:19:34;1.38;;;0.95;;
15112;SDS011;7657;50.140;7.076;2023-05-10T13:22:01;2.67;;;0.68;;
15112;SDS011;7657;50.140;7.076;2023-05-10T13:24:29;0.80;;;0.68;;
15112;SDS011;7657;50.140;7.076;2023-05-10T13:26:55;3.63;;;1.50;;
15112;SDS011;7657;50.140;7.076;2023-05-10T13:29:22;7.15;;;2.55;;
15112;SDS011;7657;50.140;7.076;2023-05-10T13:31:49;1.80;;;0.82;;
15112;SDS011;7657;50.140;7.076;2023-05-10T13:34:16;2.53;;;1.00;;
15112;SDS011;7657;50.140;7.076;2023-05-10T13:36:46;3.88;;;1.63;;
15112;SDS011;7657;50.140;7.076;2023-05-10T13:39:13;1.98;;;1.02;;
15112;SDS011;7657;50.140;7.076;2023-05-10T13:41:41;3.35;;;1.88;;
15112;SDS011;7657;50.140;7.076;2023-05-10T13:44:08;1.73;;;1.00;;
15112;SDS011;7657;50.140;7.076;2023-05-10T13:46:35;1.20;;;0.80;;
15112;SDS011;7657;50.140;7.076;2023-05-10T13:49:03;1.42;;;1.15;;
15112;SDS011;7657;50.140;7.076;2023-05-10T13:51:30;3.45;;;1.52;;
15112;SDS011;7657;50.140;7.076;2023-05-10T13:53:59;1.23;;;0.70;;
15112;SDS011;7657;50.140;7.076;2023-05-10T13:56:26;1.95;;;0.88;;
15112;SDS011;7657;50.140;7.076;2023-05-10T13:58:53;5.18;;;1.00;;
15112;SDS011;7657;50.140;7.076;2023-05-10T14:01:20;1.50;;;0.95;;
15112;SDS011;7657;50.140;7.076;2023-05-10T14:03:47;2.35;;;0.88;;
15112;SDS011;7657;50.140;7.076;2023-05-10T14:06:14;4.22;;;2.13;;
15112;SDS011;7657;50.140;7.076;2023-05-10T14:08:41;1.63;;;0.80;;
15112;SDS011;7657;50.140;7.076;2023-05-10T14:11:09;1.23;;;0.93;;
15112;SDS011;7657;50.140;7.076;2023-05-10T14:13:36;3.00;;;1.52;;
15112;SDS011;7657;50.140;7.076;2023-05-10T14:16:04;0.77;;;0.70;;
15112;SDS011;7657;50.140;7.076;2023-05-10T14:18:31;0.70;;;0.55;;
15112;SDS011;7657;50.140;7.076;2023-05-10T14:20:58;0.77;;;0.70;;
15112;SDS011;7657;50.140;7.076;2023-05-10T14:23:25;1.13;;;0.82;;
15112;SDS011;7657;50.140;7.076;2023-05-10T14:25:53;2.67;;;1.50;;
15112;SDS011;7657;50.140;7.076;2023-05-10T14:28:24;1.17;;;0.63;;
15112;SDS011;7657;50.140;7.076;2023-05-10T14:30:51;6.05;;;2.72;;
15112;SDS011;7657;50.140;7.076;2023-05-10T14:33:18;1.42;;;1.00;;
15112;SDS011;7657;50.140;7.076;2023-05-10T14:35:45;1.58;;;1.02;;
15112;SDS011;7657;50.140;7.076;2023-05-10T14:38:12;0.93;;;0.80;;
15112;SDS011;7657;50.140;7.076;2023-05-10T14:40:40;4.07;;;1.85;;
15112;SDS011;7657;50.140;7.076;2023-05-10T14:43:07;11.82;;;4.10;;
15112;SDS011;7657;50.140;7.076;2023-05-10T14:45:35;9.70;;;4.45;;
15112;SDS011;7657;50.140;7.076;2023-05-10T14:48:02;1.48;;;0.70;;
15112;SDS011;7657;50.140;7.076;2023-05-10T14:50:29;0.75;;;0.40;;
15112;SDS011;7657;50.140;7.076;2023-05-10T14:52:56;0.77;;;0.50;;
15112;SDS011;7657;50.140;7.076;2023-05-10T14:55:23;1.65;;;0.70;;
15112;SDS011;7657;50.140;7.076;2023-05-10T14:57:50;1.52;;;0.73;;
15112;SDS011;7657;50.140;7.076;2023-05-10T15:00:17;1.27;;;0.60;;
15112;SDS011;7657;50.140;7.076;2023-05-10T15:02:46;0.60;;;0.50;;
15112;SDS011;7657;50.140;7.076;2023-05-10T15:05:13;7.35;;;2.60;;
15112;SDS011;7657;50.140;7.076;2023-05-10T15:07:40;4.22;;;2.22;;
15112;SDS011;7657;50.140;7.076;2023-05-10T15:10:08;3.88;;;2.28;;
15112;SDS011;7657;50.140;7.076;2023-05-10T15:12:36;1.33;;;0.70;;
15112;SDS011;7657;50.140;7.076;2023-05-10T15:15:03;3.38;;;1.40;;
15112;SDS011;7657;50.140;7.076;2023-05-10T15:17:30;1.20;;;0.90;;